Time;durP1;ratioP1;P1;durP2;ratioP2;P2;SDS_P1;SDS_P2;PMS_P1;PMS_P2;Temp;Humidity;BMP_temperature;BMP_pressure;BME280_temperature;BME280_humidity;BME280_pressure;Samples;Min_cycle;Max_cycle;Signal;HPM_P1;HPM_P2
2023/06/30 00:00:15;;;;;;;10.47;5.33;;;18.00;99.90;;;;;;4992699;28;20199;-84
2023/06/30 00:02:42;;;;;;;9.87;5.33;;;17.90;99.90;;;;;;4993123;28;20206;-83
2023/06/30 00:05:08;;;;;;;14.17;5.10;;;17.80;99.90;;;;;;4993282;28;20187;-84
2023/06/30 00:07:34;;;;;;;8.63;5.20;;;17.70;99.90;;;;;;4992970;28;20207;-83
2023/06/30 00:09:59;;;;;;;10.87;4.90;;;17.70;99.90;;;;;;4994750;28;20222;-84
2023/06/30 00:12:25;;;;;;;11.57;4.80;;;17.70;99.90;;;;;;4994648;28;20182;-83
2023/06/30 00:14:50;;;;;;;16.90;5.10;;;17.70;99.90;;;;;;4993012;28;20528;-83
2023/06/30 00:17:16;;;;;;;14.67;5.17;;;17.70;99.90;;;;;;4994194;28;20588;-83
2023/06/30 00:19:41;;;;;;;15.10;5.87;;;17.60;99.90;;;;;;4992361;28;20742;-84
2023/06/30 00:22:07;;;;;;;16.03;5.20;;;17.70;99.90;;;;;;4992547;28;20638;-83
2023/06/30 00:24:33;;;;;;;9.47;5.57;;;17.70;99.90;;;;;;4993946;28;20179;-83
2023/06/30 00:26:59;;;;;;;11.57;5.10;;;17.80;99.90;;;;;;4992659;28;20235;-85
2023/06/30 00:29:24;;;;;;;7.13;5.17;;;17.80;99.90;;;;;;4992496;28;20192;-83
2023/06/30 00:31:50;;;;;;;9.00;5.27;;;17.90;99.90;;;;;;4993319;28;20195;-83
2023/06/30 00:34:15;;;;;;;6.53;5.27;;;17.90;99.90;;;;;;4992573;28;20299;-84
2023/06/30 00:36:41;;;;;;;8.07;5.30;;;17.90;99.90;;;;;;4991721;28;20190;-83
2023/06/30 00:39:06;;;;;;;6.10;4.53;;;17.90;99.90;;;;;;4993579;28;20244;-83
2023/06/30 00:41:32;;;;;;;6.37;4.90;;;17.90;99.90;;;;;;4993091;28;20180;-83
2023/06/30 00:43:58;;;;;;;6.77;5.10;;;17.80;99.90;;;;;;4992552;28;20180;-84
2023/06/30 00:46:23;;;;;;;7.50;4.80;;;17.80;99.90;;;;;;4994110;28;20200;-84
2023/06/30 00:48:49;;;;;;;6.20;5.00;;;17.80;99.90;;;;;;4992147;28;20191;-83
2023/06/30 00:51:15;;;;;;;9.10;5.30;;;17.70;99.90;;;;;;4993134;28;20164;-83
2023/06/30 00:53:41;;;;;;;7.23;5.50;;;17.60;99.90;;;;;;4992593;28;20183;-84
2023/06/30 00:56:06;;;;;;;5.07;4.57;;;17.70;99.90;;;;;;4992397;28;20549;-83
2023/06/30 00:58:32;;;;;;;5.60;4.97;;;17.70;99.90;;;;;;4992165;28;20238;-84
2023/06/30 01:01:38;;;;;;;9.80;5.60;;;17.80;99.90;;;;;;4991594;28;20171;-83
2023/06/30 01:04:39;;;;;;;7.37;4.87;;;17.80;99.90;;;;;;4993291;28;20214;-85
2023/06/30 01:07:30;;;;;;;5.93;4.70;;;17.60;99.90;;;;;;4978138;28;20204;-84
2023/06/30 01:10:08;;;;;;;10.33;4.67;;;17.60;99.90;;;;;;4992638;28;20238;-83
2023/06/30 01:12:34;;;;;;;15.33;5.67;;;17.40;99.90;;;;;;4993439;28;20152;-83
2023/06/30 01:15:01;;;;;;;12.53;5.37;;;17.30;99.90;;;;;;4993284;28;20176;-84
2023/06/30 01:17:27;;;;;;;7.93;5.47;;;17.20;99.90;;;;;;4993158;28;20175;-83
2023/06/30 01:19:55;;;;;;;11.00;5.50;;;17.30;99.90;;;;;;4991378;28;20283;-83
2023/06/30 01:22:26;;;;;;;10.23;5.20;;;17.30;99.90;;;;;;4992145;28;20395;-83
2023/06/30 01:25:08;;;;;;;8.03;4.80;;;17.20;99.90;;;;;;4991626;28;20179;-83
2023/06/30 01:27:36;;;;;;;9.10;5.37;;;17.20;99.90;;;;;;4991798;28;20207;-84
2023/06/30 01:30:05;;;;;;;7.07;5.37;;;17.40;99.90;;;;;;4991178;28;20226;-85
2023/06/30 01:32:31;;;;;;;8.90;5.37;;;17.30;99.90;;;;;;4992733;28;20217;-84
2023/06/30 01:34:57;;;;;;;6.67;5.30;;;17.30;99.90;;;;;;4993184;28;20179;-84
2023/06/30 01:37:22;;;;;;;9.60;5.17;;;17.20;99.90;;;;;;4991769;28;20175;-83
2023/06/30 01:39:48;;;;;;;7.03;4.50;;;17.30;99.90;;;;;;4992290;28;20237;-83
2023/06/30 01:42:14;;;;;;;6.23;4.60;;;17.30;99.90;;;;;;4991633;28;20235;-84
2023/06/30 01:44:40;;;;;;;6.20;4.83;;;17.20;99.90;;;;;;4991604;28;20187;-84
2023/06/30 01:47:09;;;;;;;8.77;5.23;;;17.20;99.90;;;;;;4992654;28;20740;-83
2023/06/30 01:49:34;;;;;;;12.10;4.93;;;17.20;99.90;;;;;;4992691;28;20191;-83
2023/06/30 01:52:01;;;;;;;8.37;5.20;;;17.20;99.90;;;;;;4991541;28;20175;-84
2023/06/30 01:54:26;;;;;;;9.17;5.40;;;17.10;99.90;;;;;;4991553;28;20175;-83
2023/06/30 01:56:52;;;;;;;6.77;5.40;;;17.10;99.90;;;;;;4993125;28;20271;-83
2023/06/30 01:59:18;;;;;;;8.33;5.23;;;17.10;99.90;;;;;;4992482;28;20210;-83
2023/06/30 02:01:43;;;;;;;8.20;5.73;;;17.10;99.90;;;;;;4991142;28;20554;-83
2023/06/30 02:04:09;;;;;;;6.97;5.43;;;17.10;99.90;;;;;;4992723;28;20234;-84
2023/06/30 02:06:35;;;;;;;11.53;4.83;;;17.20;99.90;;;;;;4991506;28;20246;-83
2023/06/30 02:09:00;;;;;;;8.57;5.27;;;17.00;99.90;;;;;;4991281;28;20211;-83
2023/06/30 02:11:27;;;;;;;8.60;5.30;;;17.00;99.90;;;;;;4992121;28;20239;-84
2023/06/30 02:13:53;;;;;;;7.53;5.10;;;17.10;99.90;;;;;;4991292;28;20207;-83
2023/06/30 02:16:18;;;;;;;9.00;5.33;;;17.00;99.90;;;;;;4992753;28;20190;-83
2023/06/30 02:18:44;;;;;;;14.63;5.70;;;16.90;99.90;;;;;;4991668;28;20195;-84
2023/06/30 02:21:09;;;;;;;9.17;5.20;;;16.80;99.90;;;;;;4994394;28;20635;-84
2023/06/30 02:23:35;;;;;;;7.87;4.90;;;16.90;99.90;;;;;;4996292;28;20537;-84
2023/06/30 02:26:01;;;;;;;8.00;5.00;;;16.90;99.90;;;;;;4994772;28;20183;-83
2023/06/30 02:28:26;;;;;;;7.03;5.60;;;17.00;99.90;;;;;;4996055;28;20196;-84
2023/06/30 02:30:53;;;;;;;7.37;5.17;;;17.10;99.90;;;;;;4994618;28;20283;-83
2023/06/30 02:33:19;;;;;;;8.07;5.37;;;17.10;99.90;;;;;;4996314;28;20176;-83
2023/06/30 02:35:44;;;;;;;10.03;5.93;;;17.10;99.90;;;;;;4994952;28;20183;-83
2023/06/30 02:38:10;;;;;;;7.43;5.70;;;17.00;99.90;;;;;;4993650;28;20207;-84
2023/06/30 02:40:36;;;;;;;9.13;6.00;;;17.00;99.90;;;;;;4994105;28;20179;-83
2023/06/30 02:43:02;;;;;;;10.27;5.73;;;16.90;99.90;;;;;;4996201;28;20183;-83
2023/06/30 02:45:28;;;;;;;7.20;5.43;;;16.90;99.90;;;;;;4994825;28;20175;-83
2023/06/30 02:47:54;;;;;;;10.00;5.47;;;16.90;99.90;;;;;;4995901;28;20208;-83
2023/06/30 02:50:29;;;;;;;11.17;5.97;;;16.90;99.90;;;;;;4994099;28;20284;-83
2023/06/30 02:52:55;;;;;;;8.77;5.87;;;16.80;99.90;;;;;;4994616;28;20176;-83
2023/06/30 02:55:21;;;;;;;8.10;5.70;;;16.80;99.90;;;;;;4994622;28;20326;-83
2023/06/30 02:57:46;;;;;;;7.40;5.27;;;16.80;99.90;;;;;;4995871;28;20199;-83
2023/06/30 03:00:13;;;;;;;6.07;4.70;;;16.80;99.90;;;;;;4993933;28;20752;-83
2023/06/30 03:02:38;;;;;;;8.73;5.30;;;16.80;99.90;;;;;;4995659;28;20175;-83
2023/06/30 03:05:05;;;;;;;7.80;5.67;;;16.80;99.90;;;;;;4994532;28;20223;-83
2023/06/30 03:07:30;;;;;;;7.70;5.67;;;16.80;99.90;;;;;;4995364;28;20200;-83
2023/06/30 03:09:56;;;;;;;8.40;5.70;;;16.80;99.90;;;;;;4993619;28;20203;-83
2023/06/30 03:12:22;;;;;;;7.93;6.10;;;16.80;99.90;;;;;;4995514;28;20242;-83
2023/06/30 03:14:47;;;;;;;9.93;6.20;;;16.80;99.90;;;;;;4995478;28;20183;-84
2023/06/30 03:17:13;;;;;;;8.73;6.30;;;16.80;99.90;;;;;;4995398;28;20188;-83
2023/06/30 03:19:38;;;;;;;7.47;5.50;;;16.90;99.90;;;;;;4993293;28;20611;-83
2023/06/30 03:22:04;;;;;;;7.17;5.20;;;16.90;99.90;;;;;;4994015;28;20179;-83
2023/06/30 03:24:29;;;;;;;7.53;5.33;;;16.90;99.90;;;;;;4993960;28;20233;-83
2023/06/30 03:26:55;;;;;;;6.27;5.37;;;16.80;99.90;;;;;;4995422;28;20199;-83
2023/06/30 03:29:21;;;;;;;6.43;5.00;;;16.60;99.90;;;;;;4993849;28;20195;-83
2023/06/30 03:31:47;;;;;;;7.57;5.10;;;16.60;99.90;;;;;;4992676;28;20195;-83
2023/06/30 03:34:12;;;;;;;5.43;4.57;;;16.60;99.90;;;;;;4993826;28;20172;-83
2023/06/30 03:36:38;;;;;;;8.20;4.97;;;16.50;99.90;;;;;;4993571;28;20176;-84
2023/06/30 03:39:05;;;;;;;7.43;5.40;;;16.50;99.90;;;;;;4994919;28;20604;-83
2023/06/30 03:41:30;;;;;;;7.73;5.57;;;16.50;99.90;;;;;;4994113;28;20180;-82
2023/06/30 03:43:56;;;;;;;9.67;6.33;;;16.60;99.90;;;;;;4994974;28;20187;-83
2023/06/30 03:46:22;;;;;;;9.30;5.97;;;16.80;99.90;;;;;;4994831;28;20208;-83
2023/06/30 03:48:47;;;;;;;10.47;6.07;;;16.80;99.90;;;;;;4994606;28;20274;-83
2023/06/30 03:51:13;;;;;;;8.77;5.47;;;16.90;99.90;;;;;;4994498;28;20176;-84
2023/06/30 03:53:40;;;;;;;8.23;6.10;;;16.80;99.90;;;;;;4993385;28;20226;-84
2023/06/30 03:56:06;;;;;;;8.67;5.90;;;16.90;99.90;;;;;;4994682;28;20178;-83
2023/06/30 03:58:31;;;;;;;7.53;5.90;;;16.90;99.90;;;;;;4994561;28;20191;-84
2023/06/30 04:00:57;;;;;;;8.03;5.97;;;17.00;99.90;;;;;;4992841;28;20178;-83
2023/06/30 04:03:22;;;;;;;8.30;5.90;;;17.00;99.90;;;;;;4994489;28;20267;-83
2023/06/30 04:05:48;;;;;;;8.70;5.87;;;17.10;99.90;;;;;;4993367;28;20187;-83
2023/06/30 04:08:13;;;;;;;8.10;5.50;;;17.10;99.90;;;;;;4992752;28;20203;-84
2023/06/30 04:10:39;;;;;;;9.27;6.37;;;17.20;99.90;;;;;;4992442;28;20183;-83
2023/06/30 04:13:08;;;;;;;7.53;5.83;;;17.10;99.90;;;;;;4994345;28;20176;-83
2023/06/30 04:15:33;;;;;;;8.93;6.63;;;17.10;99.90;;;;;;4994255;28;20168;-83
2023/06/30 04:17:59;;;;;;;8.70;6.47;;;17.10;99.90;;;;;;4992862;28;20186;-83
2023/06/30 04:20:25;;;;;;;10.10;6.70;;;17.10;99.90;;;;;;4992316;28;20204;-83
2023/06/30 04:22:50;;;;;;;10.17;6.90;;;17.10;99.90;;;;;;4992967;28;20191;-84
2023/06/30 04:25:16;;;;;;;15.80;7.40;;;17.10;99.90;;;;;;4994038;28;20188;-83
2023/06/30 04:27:41;;;;;;;10.50;6.83;;;17.10;99.90;;;;;;4994003;28;20222;-83
2023/06/30 04:30:07;;;;;;;10.77;6.50;;;17.10;99.90;;;;;;4993445;28;20202;-83
2023/06/30 04:32:33;;;;;;;7.57;5.37;;;17.20;99.90;;;;;;4993792;28;20682;-83
2023/06/30 04:34:59;;;;;;;9.77;5.83;;;17.20;99.90;;;;;;4992980;28;20179;-83
2023/06/30 04:37:29;;;;;;;8.20;6.30;;;17.10;99.90;;;;;;4992907;28;20184;-83
2023/06/30 04:39:58;;;;;;;7.77;6.30;;;17.20;99.90;;;;;;4993018;28;20663;-83
2023/06/30 04:42:23;;;;;;;8.73;6.10;;;17.20;99.90;;;;;;4991659;28;20270;-84
2023/06/30 04:44:49;;;;;;;8.33;6.13;;;17.20;99.90;;;;;;4993542;28;20248;-83
2023/06/30 04:47:16;;;;;;;12.87;6.90;;;17.10;99.90;;;;;;4993864;28;20203;-84
2023/06/30 04:49:42;;;;;;;10.53;7.37;;;17.10;99.90;;;;;;4993397;28;20222;-83
2023/06/30 04:52:07;;;;;;;10.23;7.33;;;17.10;99.90;;;;;;4992353;28;20179;-84
2023/06/30 04:54:33;;;;;;;9.97;7.10;;;17.20;99.90;;;;;;4992326;28;20176;-83
2023/06/30 04:56:58;;;;;;;11.30;6.90;;;17.20;99.90;;;;;;4993497;28;20207;-83
2023/06/30 04:59:24;;;;;;;9.17;7.27;;;17.20;99.90;;;;;;4992304;28;20206;-83
2023/06/30 05:01:49;;;;;;;8.73;7.10;;;17.30;99.90;;;;;;4993170;28;20193;-83
2023/06/30 05:04:16;;;;;;;9.83;7.03;;;17.30;99.90;;;;;;4993608;28;20596;-83
2023/06/30 05:06:41;;;;;;;9.77;7.13;;;17.30;99.90;;;;;;4991954;28;20235;-84
2023/06/30 05:09:07;;;;;;;10.83;6.83;;;17.50;99.90;;;;;;4991819;28;20211;-82
2023/06/30 05:11:33;;;;;;;9.60;7.00;;;17.50;99.90;;;;;;4991528;28;20209;-82
2023/06/30 05:13:58;;;;;;;8.70;6.73;;;17.50;99.90;;;;;;4993301;28;20183;-83
2023/06/30 05:16:24;;;;;;;8.40;7.57;;;17.50;99.90;;;;;;4992271;28;20176;-82
2023/06/30 05:18:49;;;;;;;9.83;7.67;;;17.50;99.90;;;;;;4992133;28;20207;-82
2023/06/30 05:21:15;;;;;;;10.23;7.40;;;17.60;99.90;;;;;;4991623;28;20186;-83
2023/06/30 05:23:41;;;;;;;9.43;7.47;;;17.60;99.90;;;;;;4993024;28;20175;-82
2023/06/30 05:26:06;;;;;;;8.00;7.07;;;17.70;99.90;;;;;;4992044;28;20555;-82
2023/06/30 05:28:34;;;;;;;8.57;7.37;;;17.70;99.90;;;;;;4991725;28;20199;-82
2023/06/30 05:31:00;;;;;;;11.30;7.43;;;17.80;99.90;;;;;;4991585;28;20179;-83
2023/06/30 05:33:26;;;;;;;10.23;7.67;;;17.80;99.90;;;;;;4991916;28;20176;-83
2023/06/30 05:35:51;;;;;;;9.30;7.00;;;17.80;99.90;;;;;;4992985;28;20180;-82
2023/06/30 05:38:17;;;;;;;10.67;7.47;;;17.90;99.90;;;;;;4991545;28;20172;-82
2023/06/30 05:40:42;;;;;;;10.27;7.33;;;18.00;99.90;;;;;;4991455;28;20234;-83
2023/06/30 05:43:09;;;;;;;10.00;7.30;;;18.10;99.90;;;;;;4991749;28;20183;-82
2023/06/30 05:45:35;;;;;;;10.57;7.63;;;18.20;99.90;;;;;;4991837;28;20179;-82
2023/06/30 05:48:01;;;;;;;11.03;7.30;;;18.20;99.90;;;;;;4991817;28;20214;-83
2023/06/30 05:50:27;;;;;;;9.40;7.60;;;18.30;99.90;;;;;;4992160;28;20210;-82
2023/06/30 05:52:53;;;;;;;10.30;7.27;;;18.40;99.90;;;;;;4992726;28;20172;-82
2023/06/30 05:55:18;;;;;;;10.83;8.07;;;18.30;99.90;;;;;;4995914;28;20174;-82
2023/06/30 05:57:44;;;;;;;8.70;7.80;;;18.30;99.90;;;;;;4995781;28;20179;-82
2023/06/30 06:00:11;;;;;;;9.23;7.90;;;18.30;99.90;;;;;;4996375;28;20575;-82
2023/06/30 06:02:36;;;;;;;13.63;8.10;;;18.20;99.90;;;;;;4996922;28;20258;-83
2023/06/30 06:05:02;;;;;;;10.97;8.10;;;18.20;99.90;;;;;;4995646;28;20604;-83
2023/06/30 06:07:28;;;;;;;9.43;8.20;;;18.20;99.90;;;;;;4995300;28;20311;-82
2023/06/30 06:09:53;;;;;;;14.90;8.53;;;18.20;99.90;;;;;;4997742;28;20195;-83
2023/06/30 06:12:19;;;;;;;11.60;8.57;;;18.20;99.90;;;;;;4995795;28;20179;-83
2023/06/30 06:14:44;;;;;;;12.47;8.30;;;18.20;99.90;;;;;;4995490;28;20650;-83
2023/06/30 06:17:10;;;;;;;11.03;8.67;;;18.30;99.90;;;;;;4995272;28;20270;-82
2023/06/30 06:19:36;;;;;;;11.33;8.80;;;18.30;99.90;;;;;;4995968;28;20195;-79
2023/06/30 06:22:01;;;;;;;11.97;8.57;;;18.40;99.90;;;;;;4996463;28;20201;-82
2023/06/30 06:24:27;;;;;;;9.93;8.20;;;18.50;99.90;;;;;;4995307;28;20259;-82
2023/06/30 06:26:52;;;;;;;12.83;7.80;;;18.50;99.90;;;;;;4995387;28;20207;-83
2023/06/30 06:29:21;;;;;;;12.67;8.23;;;18.50;99.90;;;;;;4996453;28;20191;-83
2023/06/30 06:31:49;;;;;;;12.73;8.68;;;18.60;99.90;;;;;;4995819;28;20164;-83
2023/06/30 06:34:15;;;;;;;10.33;8.53;;;18.60;99.90;;;;;;4995121;28;20176;-82
2023/06/30 06:36:41;;;;;;;11.07;8.47;;;18.60;99.90;;;;;;4995148;28;20180;-83
2023/06/30 06:39:06;;;;;;;10.10;9.00;;;18.60;99.90;;;;;;4996485;28;20246;-83
2023/06/30 06:41:32;;;;;;;12.47;8.73;;;18.70;99.90;;;;;;4995703;28;20726;-83
2023/06/30 06:43:58;;;;;;;14.33;8.40;;;18.60;99.90;;;;;;4996527;28;20202;-84
2023/06/30 06:46:23;;;;;;;14.40;8.97;;;18.70;99.90;;;;;;4994863;28;20227;-83
2023/06/30 06:48:49;;;;;;;11.07;8.15;;;18.70;99.90;;;;;;4994584;28;20188;-83
2023/06/30 06:51:14;;;;;;;11.90;9.13;;;18.70;99.90;;;;;;4994193;28;20199;-83
2023/06/30 06:53:40;;;;;;;12.82;9.85;;;18.70;99.90;;;;;;4994768;28;20524;-82
2023/06/30 06:56:06;;;;;;;16.33;11.45;;;18.80;99.90;;;;;;4995988;28;20171;-83
2023/06/30 06:58:35;;;;;;;11.80;9.60;;;18.80;99.90;;;;;;4997677;28;20200;-83
2023/06/30 07:01:00;;;;;;;14.30;10.65;;;18.90;99.90;;;;;;4993989;28;20178;-84
2023/06/30 07:03:26;;;;;;;14.37;11.13;;;19.00;99.90;;;;;;4995647;28;20176;-83
2023/06/30 07:05:53;;;;;;;14.07;10.90;;;19.00;99.90;;;;;;4994641;28;20183;-83
2023/06/30 07:08:19;;;;;;;13.05;10.32;;;19.00;99.90;;;;;;4995619;28;20698;-83
2023/06/30 07:10:45;;;;;;;12.07;10.07;;;19.10;99.90;;;;;;4995375;28;20188;-84
2023/06/30 07:13:12;;;;;;;13.77;10.75;;;19.20;99.90;;;;;;4994519;28;20554;-83
2023/06/30 07:15:37;;;;;;;14.52;10.27;;;19.30;99.90;;;;;;4994471;28;20218;-84
2023/06/30 07:18:03;;;;;;;14.00;10.60;;;19.30;99.90;;;;;;4994185;28;20206;-82
2023/06/30 07:20:29;;;;;;;14.07;10.82;;;19.30;99.90;;;;;;4993669;28;20250;-83
2023/06/30 07:22:56;;;;;;;14.35;11.38;;;19.40;99.90;;;;;;4995755;28;20207;-83
2023/06/30 07:25:22;;;;;;;13.32;10.60;;;19.50;99.90;;;;;;4994626;28;20734;-82
2023/06/30 07:27:56;;;;;;;14.00;9.95;;;19.50;99.90;;;;;;4994175;28;20250;-84
2023/06/30 07:30:26;;;;;;;14.07;10.55;;;19.50;99.90;;;;;;4994729;28;20198;-83
2023/06/30 07:32:52;;;;;;;12.68;10.38;;;19.50;99.90;;;;;;4994446;28;20176;-83
2023/06/30 07:35:18;;;;;;;13.30;9.98;;;19.40;99.90;;;;;;4994175;28;20267;-83
2023/06/30 07:37:45;;;;;;;16.08;11.35;;;19.40;99.90;;;;;;4994100;28;20239;-83
2023/06/30 07:40:10;;;;;;;16.70;11.80;;;19.40;99.90;;;;;;4994582;28;20238;-83
2023/06/30 07:42:38;;;;;;;14.60;11.38;;;19.30;99.90;;;;;;4995524;28;20235;-84
2023/06/30 07:45:09;;;;;;;15.95;11.23;;;19.20;99.90;;;;;;4995132;28;20218;-83
2023/06/30 07:47:35;;;;;;;14.68;11.25;;;19.20;99.90;;;;;;4993831;28;20219;-82
2023/06/30 07:50:01;;;;;;;17.60;12.60;;;19.20;99.90;;;;;;4993374;28;20216;-83
2023/06/30 07:52:27;;;;;;;17.30;12.30;;;19.20;99.90;;;;;;4993587;28;20191;-84
2023/06/30 07:54:55;;;;;;;17.23;13.10;;;19.30;99.90;;;;;;4994847;28;20658;-83
2023/06/30 07:57:30;;;;;;;16.55;12.73;;;19.30;99.90;;;;;;4993581;28;20187;-83
2023/06/30 07:59:55;;;;;;;17.10;12.43;;;19.40;99.90;;;;;;4992817;28;20629;-83
2023/06/30 08:02:21;;;;;;;15.80;12.00;;;19.40;99.90;;;;;;4994971;28;20659;-83
2023/06/30 08:04:46;;;;;;;16.13;12.48;;;19.40;99.90;;;;;;4993874;28;20773;-83
2023/06/30 08:07:12;;;;;;;15.98;12.43;;;19.50;99.90;;;;;;4994922;28;20203;-83
2023/06/30 08:09:37;;;;;;;16.05;12.30;;;19.50;99.90;;;;;;4992938;28;20210;-83
2023/06/30 08:12:03;;;;;;;18.85;13.07;;;19.60;99.90;;;;;;4994607;28;20168;-82
2023/06/30 08:14:29;;;;;;;17.63;12.98;;;19.60;99.90;;;;;;4994672;28;20171;-83
2023/06/30 08:16:54;;;;;;;19.20;13.23;;;19.60;99.90;;;;;;4993220;28;20183;-83
2023/06/30 08:19:20;;;;;;;19.77;14.07;;;19.60;99.90;;;;;;4992939;28;20195;-82
2023/06/30 08:21:46;;;;;;;18.20;13.90;;;19.60;99.90;;;;;;4992599;28;20171;-82
2023/06/30 08:24:11;;;;;;;21.73;15.18;;;19.60;99.90;;;;;;4994252;28;20194;-83
2023/06/30 08:26:37;;;;;;;19.92;14.95;;;19.70;99.90;;;;;;4994707;28;20202;-83
2023/06/30 08:29:02;;;;;;;20.73;14.85;;;19.60;99.90;;;;;;4992983;28;20617;-83
2023/06/30 08:31:28;;;;;;;21.17;14.27;;;19.60;99.90;;;;;;4993671;28;20238;-82
2023/06/30 08:33:54;;;;;;;19.40;14.32;;;19.60;99.90;;;;;;4994185;28;20170;-83
2023/06/30 08:36:21;;;;;;;19.90;14.35;;;19.60;99.90;;;;;;4991497;28;20266;-81
2023/06/30 08:38:47;;;;;;;18.67;14.23;;;19.60;99.90;;;;;;4992525;28;20199;-83
2023/06/30 08:41:14;;;;;;;22.63;14.60;;;19.70;99.90;;;;;;4993469;28;20182;-84
2023/06/30 08:43:41;;;;;;;21.50;15.20;;;19.70;99.90;;;;;;4992723;28;20272;-83
2023/06/30 08:46:08;;;;;;;22.98;15.75;;;19.70;99.90;;;;;;4993950;28;20182;-82
2023/06/30 08:48:36;;;;;;;20.35;15.25;;;19.70;99.90;;;;;;4994127;28;20206;-82
2023/06/30 08:51:03;;;;;;;22.23;16.02;;;19.70;99.90;;;;;;4992081;28;20172;-83
2023/06/30 08:53:30;;;;;;;20.90;15.20;;;19.60;99.90;;;;;;4992725;28;20199;-82
2023/06/30 08:55:59;;;;;;;21.23;15.50;;;19.60;99.90;;;;;;4992437;28;20175;-82
2023/06/30 08:58:27;;;;;;;21.73;16.30;;;19.70;99.90;;;;;;4992636;28;20171;-83
2023/06/30 09:00:54;;;;;;;22.33;16.20;;;19.70;99.90;;;;;;4992074;28;20222;-83
2023/06/30 09:03:19;;;;;;;22.85;15.18;;;19.80;99.90;;;;;;4993453;28;20194;-83
2023/06/30 09:05:46;;;;;;;21.15;15.95;;;20.00;99.90;;;;;;4993821;28;20266;-83
2023/06/30 09:08:19;;;;;;;21.80;16.08;;;20.10;99.90;;;;;;4992246;28;20203;-82
2023/06/30 09:10:46;;;;;;;21.95;15.50;;;20.30;99.90;;;;;;4993286;28;20183;-83
2023/06/30 09:13:14;;;;;;;18.85;14.13;;;20.40;99.90;;;;;;4992194;28;20172;-83
2023/06/30 09:15:40;;;;;;;21.55;15.93;;;20.40;99.90;;;;;;4992266;28;20171;-83
2023/06/30 09:18:06;;;;;;;22.23;16.48;;;20.50;99.90;;;;;;4993537;28;20562;-82
2023/06/30 09:20:32;;;;;;;20.90;15.20;;;20.50;99.90;;;;;;4993007;28;20263;-82
2023/06/30 09:23:02;;;;;;;22.50;15.73;;;20.50;99.90;;;;;;4993249;28;20258;-83
2023/06/30 09:25:27;;;;;;;22.45;15.70;;;20.50;99.90;;;;;;4992449;28;20275;-82
2023/06/30 09:27:54;;;;;;;22.52;16.08;;;20.50;99.90;;;;;;4992071;28;20301;-83
2023/06/30 09:30:46;;;;;;;20.23;15.52;;;20.50;99.90;;;;;;4992100;28;20196;-82
2023/06/30 09:33:16;;;;;;;24.17;16.35;;;20.50;99.90;;;;;;4993336;28;20178;-82
2023/06/30 09:35:47;;;;;;;23.48;16.75;;;20.60;99.90;;;;;;4991968;28;20230;-83
2023/06/30 09:38:17;;;;;;;24.98;16.48;;;20.50;99.90;;;;;;4991806;28;20712;-82
2023/06/30 09:40:45;;;;;;;22.95;16.70;;;20.60;99.90;;;;;;4992673;28;20233;-84
2023/06/30 09:43:19;;;;;;;24.10;16.95;;;20.70;99.90;;;;;;4991895;28;20175;-83
2023/06/30 09:45:59;;;;;;;23.70;17.23;;;20.80;99.90;;;;;;4991782;28;20182;-82
2023/06/30 09:48:43;;;;;;;26.98;16.77;;;20.80;7.80;;;;;;4993176;28;20199;-82
2023/06/30 09:51:09;;;;;;;23.08;15.73;;;20.90;99.90;;;;;;4992837;28;20242;-83
2023/06/30 09:53:40;;;;;;;22.65;15.88;;;20.90;69.20;;;;;;4992936;28;20681;-83
2023/06/30 09:56:07;;;;;;;23.85;16.80;;;21.00;1.00;;;;;;4993119;28;20634;-83
2023/06/30 09:58:33;;;;;;;24.38;16.98;;;20.90;1.00;;;;;;4993063;28;20555;-83
2023/06/30 10:00:58;;;;;;;24.80;17.73;;;20.90;1.00;;;;;;4991618;28;20168;-81
2023/06/30 10:03:24;;;;;;;24.50;17.67;;;20.80;1.00;;;;;;4991926;28;20230;-83
2023/06/30 10:05:52;;;;;;;25.40;18.30;;;20.70;1.00;;;;;;4991959;28;20175;-83
2023/06/30 10:08:20;;;;;;;26.45;18.27;;;20.60;1.00;;;;;;4993356;28;20226;-83
2023/06/30 10:10:47;;;;;;;25.58;17.65;;;20.60;12.30;;;;;;4991600;28;20694;-82
2023/06/30 10:13:15;;;;;;;23.95;17.30;;;20.60;50.50;;;;;;4993186;28;20176;-83
2023/06/30 10:15:41;;;;;;;24.85;18.05;;;20.60;9.00;;;;;;4991779;28;20180;-83
2023/06/30 10:18:09;;;;;;;24.55;17.65;;;20.70;76.90;;;;;;4991641;28;20180;-82
2023/06/30 10:20:35;;;;;;;26.13;18.02;;;20.80;1.00;;;;;;4991411;28;20184;-82
2023/06/30 10:23:02;;;;;;;25.02;18.17;;;20.80;1.00;;;;;;4991728;28;20172;-83
2023/06/30 10:25:29;;;;;;;24.30;18.52;;;20.60;1.00;;;;;;4991908;28;20172;-83
2023/06/30 10:27:55;;;;;;;17.55;12.20;;;20.50;1.00;;;;;;4992888;28;20199;-82
2023/06/30 10:30:21;;;;;;;15.55;10.20;;;20.30;3.30;;;;;;4990901;28;20192;-83
2023/06/30 10:32:47;;;;;;;10.48;7.80;;;20.10;99.90;;;;;;4993155;28;20176;-83
2023/06/30 10:35:15;;;;;;;9.68;6.35;;;20.00;12.10;;;;;;4993950;28;20172;-83
2023/06/30 10:37:41;;;;;;;7.53;5.10;;;19.90;99.90;;;;;;4990724;28;20680;-82
2023/06/30 10:40:08;;;;;;;5.25;3.88;;;19.60;99.90;;;;;;4993080;28;20200;-82
2023/06/30 10:42:37;;;;;;;4.85;3.28;;;19.50;99.90;;;;;;4996080;28;20175;-82
2023/06/30 10:45:03;;;;;;;3.78;2.85;;;19.40;61.20;;;;;;4996585;28;20183;-82
2023/06/30 10:47:29;;;;;;;3.40;2.40;;;19.20;99.90;;;;;;4995172;28;20211;-82
2023/06/30 10:49:54;;;;;;;1.88;1.70;;;19.10;99.90;;;;;;4995674;28;20192;-82
2023/06/30 10:52:29;;;;;;;1.60;1.50;;;19.00;99.90;;;;;;4996027;28;20665;-82
2023/06/30 10:54:54;;;;;;;2.67;1.40;;;19.00;99.90;;;;;;4996063;28;20183;-82
2023/06/30 10:57:28;;;;;;;1.52;1.05;;;19.00;99.90;;;;;;4995986;28;20179;-84
2023/06/30 11:00:07;;;;;;;1.33;1.10;;;19.00;65.50;;;;;;4995258;28;20203;-82
2023/06/30 11:02:34;;;;;;;1.10;1.00;;;18.90;99.90;;;;;;5011646;28;20270;-82
2023/06/30 11:05:24;;;;;;;1.73;1.00;;;18.70;99.90;;;;;;4995339;28;20651;-82
2023/06/30 11:08:03;;;;;;;1.67;1.20;;;18.80;99.90;;;;;;4997582;28;20207;-82
2023/06/30 11:10:44;;;;;;;0.70;0.70;;;18.70;99.90;;;;;;4994584;28;20712;-82
2023/06/30 11:13:10;;;;;;;1.15;0.70;;;18.70;99.90;;;;;;4995750;28;20167;-83
2023/06/30 11:15:41;;;;;;;0.80;0.80;;;18.60;99.90;;;;;;4994286;28;20182;-82
2023/06/30 11:18:12;;;;;;;0.98;0.70;;;18.60;99.90;;;;;;4994461;28;20172;-84
2023/06/30 11:20:39;;;;;;;0.97;0.83;;;18.60;99.90;;;;;;4995158;28;20261;-82
2023/06/30 11:23:06;;;;;;;1.00;0.90;;;18.40;99.90;;;;;;4994571;28;20306;-82
2023/06/30 11:25:33;;;;;;;1.15;1.05;;;18.40;99.90;;;;;;4995559;28;20167;-82
2023/06/30 11:28:01;;;;;;;1.70;1.10;;;18.40;99.90;;;;;;4994124;28;20250;-82
2023/06/30 11:30:31;;;;;;;1.20;1.10;;;18.30;99.90;;;;;;4993364;28;20326;-82
2023/06/30 11:32:58;;;;;;;1.05;1.05;;;18.20;99.90;;;;;;4994082;28;20226;-82
2023/06/30 11:35:25;;;;;;;1.02;1.00;;;18.20;99.90;;;;;;4994394;28;20742;-82
2023/06/30 11:37:52;;;;;;;1.00;1.00;;;18.20;99.90;;;;;;4993150;28;20684;-82
2023/06/30 11:40:19;;;;;;;1.40;1.10;;;18.30;99.90;;;;;;4994685;28;20183;-82
2023/06/30 11:42:45;;;;;;;1.87;1.07;;;18.30;99.90;;;;;;4995045;28;20178;-82
2023/06/30 11:45:16;;;;;;;1.67;1.00;;;18.30;99.90;;;;;;4995345;28;20678;-82
2023/06/30 11:47:45;;;;;;;1.27;1.17;;;18.20;99.90;;;;;;4995193;28;20207;-82
2023/06/30 11:50:11;;;;;;;1.87;1.10;;;18.10;99.90;;;;;;4993223;28;20245;-84
2023/06/30 11:52:38;;;;;;;1.67;1.20;;;18.10;99.90;;;;;;4994375;28;20189;-82
2023/06/30 11:55:08;;;;;;;1.20;1.10;;;18.10;99.90;;;;;;4993747;28;20191;-82
2023/06/30 11:57:36;;;;;;;1.20;1.10;;;18.20;99.90;;;;;;4994945;28;20230;-83
2023/06/30 12:00:08;;;;;;;1.20;1.10;;;18.20;99.90;;;;;;4994550;28;20211;-82
2023/06/30 12:02:33;;;;;;;1.40;1.30;;;18.20;99.90;;;;;;4993875;28;20685;-82
2023/06/30 12:04:59;;;;;;;2.13;1.40;;;18.30;99.90;;;;;;4994872;28;20175;-82
2023/06/30 12:07:25;;;;;;;1.40;1.30;;;18.20;99.90;;;;;;4993602;28;20278;-84
2023/06/30 12:10:00;;;;;;;1.43;1.33;;;18.20;99.90;;;;;;5083199;22;20228;-88
2023/06/30 12:12:27;;;;;;;1.13;1.13;;;18.30;99.90;;;;;;5056356;28;20177;-88
2023/06/30 12:14:54;;;;;;;1.70;1.30;;;18.40;99.90;;;;;;5074473;28;20181;-88
2023/06/30 12:17:19;;;;;;;1.40;1.30;;;18.40;99.90;;;;;;5056441;28;20521;-88
2023/06/30 12:19:45;;;;;;;1.30;1.20;;;18.40;92.10;;;;;;5047002;28;20315;-88
2023/06/30 12:22:12;;;;;;;1.50;1.40;;;18.40;99.90;;;;;;5054404;28;20170;-87
2023/06/30 12:24:42;;;;;;;1.40;1.30;;;18.30;95.30;;;;;;5037151;28;20169;-88
2023/06/30 12:27:08;;;;;;;1.40;1.30;;;18.10;51.40;;;;;;5036368;28;20201;-88
2023/06/30 12:29:35;;;;;;;1.20;1.10;;;18.10;37.40;;;;;;5036011;28;20193;-87
2023/06/30 12:32:11;;;;;;;1.10;1.00;;;18.20;76.40;;;;;;5036039;28;20337;-88
2023/06/30 12:34:37;;;;;;;1.03;1.00;;;18.40;1.00;;;;;;5054180;28;20174;-88
2023/06/30 12:37:03;;;;;;;1.17;1.00;;;18.50;1.00;;;;;;5035630;28;20243;-88
2023/06/30 12:39:29;;;;;;;1.43;1.13;;;18.70;1.00;;;;;;5036174;28;20194;-88